Terminal Aerodrome Forecast
Issued by NWS Jackson, KY

Home | Current Version | Previous Version | Text Only | Print | Product List | Glossary On
Versions: 1 2 3 4 5 6 7 8 9 10 11 12 13
000
FTUS43 KJKL 301738
TAFJKL
TAF
KJKL 301738Z 3018/3118 19007KT P6SM VCTS BKN040CB
     FM310200 VRB03KT P6SM VCSH SCT040 BKN120
     FM311500 21008G15KT P6SM VCTS BKN040CB=

USA.gov is the U.S. government's official web portal to all federal, state and local government web resources and services.